This is the latest recevied weather packets stored in our database for station/object DG1UDO-13. If no packets are shown the sender has not sent any weather packets the latest 10 day(s).
| Time | Temp. | Humidity | Pressure | Rain* | Wind** | Luminosity | Snow |
|---|---|---|---|---|---|---|---|
| 1777439101 | 4.44° C | 80% | 1030.6 hPa | - | - | - | - |
| 1777437300 | 3.33° C | 83% | 1030.5 hPa | - | - | - | - |
| 1777435501 | 3.33° C | 82% | 1030.3 hPa | - | - | - | - |
| 1777433701 | 2.78° C | 82% | 1030.3 hPa | - | - | - | - |
| 1777431901 | 3.33° C | 80% | 1029.9 hPa | - | - | - | - |
| 1777430101 | 3.33° C | 77% | 1029.8 hPa | - | - | - | - |
| 1777428300 | 3.89° C | 75% | 1029.6 hPa | - | - | - | - |
| 1777426500 | 4.44° C | 72% | 1029.8 hPa | - | - | - | - |
| 1777424701 | 4.44° C | 71% | 1029.8 hPa | - | - | - | - |
| 1777422900 | 5.56° C | 67% | 1029.9 hPa | - | - | - | - |
| 1777421101 | 6.11° C | 63% | 1029.6 hPa | - | - | - | - |
| 1777419301 | 6.67° C | 60% | 1029.6 hPa | - | - | - | - |
| 1777417501 | 6.67° C | 57% | 1029.4 hPa | - | - | - | - |
| 1777415701 | 7.22° C | 55% | 1029 hPa | - | - | - | - |
| 1777413901 | 7.78° C | 53% | 1029.1 hPa | - | - | - | - |
| 1777412100 | 8.33° C | 50% | 1028.9 hPa | - | - | - | - |
| 1777410301 | 8.89° C | 48% | 1028.8 hPa | - | - | - | - |
| 1777408501 | 9.44° C | 47% | 1028.8 hPa | - | - | - | - |
| 1777406700 | 10° C | 46% | 1028.8 hPa | - | - | - | - |
| 1777404901 | 10.56° C | 44% | 1028.5 hPa | - | - | - | - |
| 1777403101 | 11.11° C | 44% | 1028.3 hPa | - | - | - | - |
| 1777401301 | 12.22° C | 42% | 1028.1 hPa | - | - | - | - |
| 1777399501 | 13.33° C | 38% | 1027.8 hPa | - | - | - | - |
| 1777397700 | 13.89° C | 41% | 1027.6 hPa | - | - | - | - |
| 1777395900 | 14.44° C | 39% | 1027.2 hPa | - | - | - | - |
* Rain since midnight (hover to see other rain measurements)
** Current wind speed in m/s (hover to see current wind gust speed)